MKJS/MBJ METAR and TAF weather

Enter ICAO airport designator
Station Type Date Time Source
MKJS METAR 2019/04/18 15:00 UTC NOAA

MKJS 181500Z 06015KT 9999 FEW022 28/23 Q1014


Station Type Date Time Source
MKJS Decoded METAR 2019/04/18 15:00 UTC NOAA

Montego Bay / Sangster, Jamaica (MKJS) 18-30N 077-55W 8M
Apr 18, 2019 - 11:00 AM EDT / 2019.04.18 1500 UTC
Wind: from the ENE (060 degrees) at 17 MPH (15 KT):0
Visibility: greater than 7 mile(s):0
Sky conditions: mostly clear
Temperature: 82 F (28 C)
Dew Point: 73 F (23 C)
Relative Humidity: 74%
Pressure (altimeter): 29.94 in. Hg (1014 hPa)
ob: MKJS 181500Z 06015KT 9999 FEW022 28/23 Q1014
cycle: 15

Station Type Date Time Source
MKJS TAF 2019/04/18 12:21 UTC NOAA

TAF MKJS 181115Z 1812/1912 VRB03KT 9999 FEW022
BECMG 1814/1816 07015KT
TEMPO 1818/1821 7000 SHRA BKN018
BECMG 1901/1903 VRB03KT

Example: see airport list